Andrews Bridge, Pennsylvania
Current Conditions -  °F | °C
As of 2:15 AM on Friday 19 Dec 2014 (Local Time) from KMQS Reporting Station
Overcast Overcast  
Wind Chill: 25°   Ceiling: 2700
Heat Index: 34°   Visibility: 10mi
Dew Point: 28°   Wind: 12mph
Humidity: 81%   Direction: 290°WNW
Pressure: 30.03"   Gusts: NA
Location:  39.9118°N, 76.0265°W
Report Text: KMQS 190715Z AUTO 29010KT 10SM OVC027 01/M02 A3003 RMK AO2
Loading
Personal Weather Stations






























Interactive Weather Map New forecast layout! Learn more

10-Day Weather Forecast

Advertisements
Track Severe Weather on mobile